createdAt,value
2024-04-18T00:01:07.273Z,89.81
2024-04-18T00:03:34.200Z,90.19
2024-04-18T00:06:01.063Z,90.25
2024-04-18T00:08:27.809Z,90.16
2024-04-18T00:10:58.951Z,89.87
2024-04-18T00:13:46.076Z,89.41
2024-04-18T00:16:32.819Z,89.60
2024-04-18T00:19:16.041Z,89.22
2024-04-18T00:22:04.270Z,89.30
2024-04-18T00:24:31.561Z,89.51
2024-04-18T00:26:58.347Z,88.74
2024-04-18T00:29:38.176Z,87.44
2024-04-18T00:32:20.030Z,86.62
2024-04-18T00:35:05.900Z,86.45
2024-04-18T00:37:35.754Z,86.46
2024-04-18T00:40:02.586Z,86.99
2024-04-18T00:42:39.802Z,87.02
2024-04-18T00:45:07.847Z,86.07
2024-04-18T00:47:48.149Z,86.08
2024-04-18T00:50:17.300Z,86.22
2024-04-18T00:52:45.141Z,86.02
2024-04-18T00:55:31.125Z,86.68
2024-04-18T00:58:13.604Z,87.49
2024-04-18T01:00:46.588Z,88.31
2024-04-18T01:03:32.637Z,89.00
2024-04-18T01:06:09.191Z,89.45
2024-04-18T01:08:57.456Z,89.56
2024-04-18T01:11:31.324Z,90.04
2024-04-18T01:13:59.930Z,90.17
2024-04-18T01:16:29.577Z,90.40
2024-04-18T01:18:56.354Z,89.32
2024-04-18T01:21:23.389Z,89.84
2024-04-18T01:23:50.157Z,90.70
2024-04-18T01:26:19.378Z,91.02
2024-04-18T01:28:46.163Z,91.42
2024-04-18T01:31:31.897Z,91.67
2024-04-18T01:33:58.868Z,91.42
2024-04-18T01:36:26.154Z,91.27
2024-04-18T01:38:53.534Z,90.51
2024-04-18T01:41:32.777Z,90.75
2024-04-18T01:44:00.170Z,90.67
2024-04-18T01:46:45.668Z,91.37
2024-04-18T01:49:30.010Z,91.50
2024-04-18T01:51:56.835Z,91.34
2024-04-18T01:54:33.560Z,91.37
2024-04-18T01:57:00.982Z,91.49
2024-04-18T01:59:47.727Z,90.75
2024-04-18T02:02:14.818Z,90.27
2024-04-18T02:05:02.007Z,89.79
2024-04-18T02:07:44.330Z,89.09
2024-04-18T02:10:11.292Z,88.78
2024-04-18T02:12:59.531Z,88.47
2024-04-18T02:15:44.720Z,87.63
2024-04-18T02:18:14.594Z,87.54
2024-04-18T02:20:44.038Z,87.85
2024-04-18T02:23:23.424Z,88.05
2024-04-18T02:25:51.403Z,88.33
2024-04-18T02:28:18.149Z,88.97
2024-04-18T02:30:45.002Z,88.84
2024-04-18T02:33:15.902Z,88.91
2024-04-18T02:35:49.131Z,88.91
2024-04-18T02:38:35.613Z,88.81
2024-04-18T02:41:06.400Z,88.49
2024-04-18T02:43:52.662Z,88.91
2024-04-18T02:46:19.705Z,88.93
2024-04-18T02:49:05.325Z,89.75
2024-04-18T02:51:32.216Z,90.60
2024-04-18T02:54:14.938Z,91.17
2024-04-18T02:56:42.370Z,91.37
2024-04-18T02:59:11.499Z,91.75
2024-04-18T03:01:53.232Z,92.28
2024-04-18T03:04:20.260Z,92.48
2024-04-18T03:06:47.478Z,92.08
2024-04-18T03:09:15.509Z,91.61
2024-04-18T03:11:54.884Z,90.86
2024-04-18T03:14:43.635Z,90.33
2024-04-18T03:17:10.755Z,89.48
2024-04-18T03:19:56.176Z,88.73
2024-04-18T03:22:26.080Z,88.45
2024-04-18T03:24:59.678Z,87.67
2024-04-18T03:27:32.562Z,87.05
2024-04-18T03:29:59.376Z,87.57
2024-04-18T03:32:38.598Z,88.49
2024-04-18T03:35:05.936Z,89.31
2024-04-18T03:37:38.567Z,89.78
2024-04-18T03:40:25.193Z,89.76
2024-04-18T03:43:01.210Z,90.32
2024-04-18T03:45:28.462Z,90.01
2024-04-18T03:48:15.214Z,89.78
2024-04-18T03:50:45.014Z,89.39
2024-04-18T03:53:21.819Z,89.81
2024-04-18T03:56:08.820Z,89.86
2024-04-18T03:58:35.590Z,90.17
2024-04-18T04:01:02.667Z,90.24
2024-04-18T04:03:29.600Z,90.76
2024-04-18T04:05:56.540Z,91.00
2024-04-18T04:08:23.259Z,91.20
2024-04-18T04:11:09.969Z,90.98
2024-04-18T04:13:37.343Z,90.84
2024-04-18T04:16:16.724Z,90.70
2024-04-18T04:18:43.644Z,90.18
2024-04-18T04:21:28.995Z,89.58
2024-04-18T04:23:56.394Z,89.61
2024-04-18T04:26:43.536Z,89.32
2024-04-18T04:29:10.263Z,89.77
2024-04-18T04:31:37.108Z,89.80
2024-04-18T04:34:03.873Z,89.88
2024-04-18T04:36:30.698Z,90.37
2024-04-18T04:38:57.970Z,90.41
2024-04-18T04:41:34.645Z,90.70
2024-04-18T04:44:01.451Z,90.98
2024-04-18T04:46:47.507Z,90.93
2024-04-18T04:49:17.737Z,91.17
2024-04-18T04:52:07.924Z,91.18
2024-04-18T04:54:43.475Z,91.37
2024-04-18T04:57:14.872Z,91.96
2024-04-18T04:59:41.963Z,92.31
2024-04-18T05:02:08.949Z,92.78
2024-04-18T05:04:51.736Z,93.23
2024-04-18T05:07:31.175Z,93.63
2024-04-18T05:10:17.855Z,94.69
2024-04-18T05:12:44.698Z,94.64
2024-04-18T05:15:31.449Z,94.99
2024-04-18T05:18:01.289Z,96.11
2024-04-18T05:20:28.109Z,96.37
2024-04-18T05:22:55.067Z,96.86
2024-04-18T05:25:21.935Z,97.17
2024-04-18T05:27:57.164Z,97.60
2024-04-18T05:30:55.170Z,97.50
2024-04-18T05:33:22.238Z,97.39
2024-04-18T05:35:49.133Z,97.77
2024-04-18T05:38:16.022Z,97.93
2024-04-18T05:40:42.836Z,97.47
2024-04-18T05:43:09.576Z,97.00
2024-04-18T05:45:46.395Z,96.32
2024-04-18T05:48:13.545Z,96.30
2024-04-18T05:50:41.122Z,95.90
2024-04-18T05:53:20.540Z,95.01
2024-04-18T05:55:53.215Z,94.57
2024-04-18T05:58:20.000Z,94.26
2024-04-18T06:00:56.785Z,93.46
2024-04-18T06:03:24.254Z,92.44
2024-04-18T06:05:51.371Z,92.77
2024-04-18T06:08:18.239Z,91.91
2024-04-18T06:10:45.109Z,91.51
2024-04-18T06:13:23.874Z,91.60
2024-04-18T06:15:50.811Z,91.12
2024-04-18T06:18:18.126Z,91.20
2024-04-18T06:20:48.820Z,90.49
2024-04-18T06:23:15.632Z,89.84
2024-04-18T06:25:42.951Z,90.54
2024-04-18T06:28:11.943Z,89.18
2024-04-18T06:30:39.645Z,90.07
2024-04-18T06:33:11.127Z,89.87
2024-04-18T06:35:37.960Z,88.88
2024-04-18T06:38:04.918Z,88.86
2024-04-18T06:40:31.746Z,88.41
2024-04-18T06:42:58.628Z,88.18
2024-04-18T06:45:26.399Z,88.75
2024-04-18T06:47:53.860Z,87.97
2024-04-18T06:50:24.051Z,88.70
2024-04-18T06:52:52.954Z,88.48
2024-04-18T06:55:19.741Z,88.70
2024-04-18T06:57:46.554Z,87.89
2024-04-18T07:00:14.509Z,88.24
2024-04-18T07:02:41.631Z,88.94
2024-04-18T07:05:27.546Z,88.05
2024-04-18T07:08:14.304Z,86.76
2024-04-18T07:10:41.160Z,87.73
2024-04-18T07:13:26.357Z,88.74
2024-04-18T07:15:57.538Z,88.47
2024-04-18T07:18:43.176Z,89.19
2024-04-18T07:21:10.067Z,88.76
2024-04-18T07:23:37.237Z,87.60
2024-04-18T07:26:04.658Z,87.78
2024-04-18T07:28:31.871Z,87.69
2024-04-18T07:30:58.707Z,86.84
2024-04-18T07:33:26.982Z,86.37
2024-04-18T07:35:55.062Z,86.48
2024-04-18T07:38:25.691Z,85.72
2024-04-18T07:40:52.473Z,84.22
2024-04-18T07:43:19.361Z,86.35
2024-04-18T07:45:46.197Z,86.29
2024-04-18T07:48:13.509Z,86.59
2024-04-18T07:50:40.941Z,87.67
2024-04-18T07:53:10.064Z,86.69
2024-04-18T07:55:37.504Z,85.73
2024-04-18T07:58:05.185Z,85.72
2024-04-18T08:00:34.373Z,84.05
2024-04-18T08:03:04.747Z,82.38
2024-04-18T08:05:35.235Z,82.60
2024-04-18T08:08:06.743Z,83.31
2024-04-18T08:10:45.985Z,81.30
2024-04-18T08:13:27.661Z,80.66
2024-04-18T08:18:24.548Z,80.52
2024-04-18T08:20:51.559Z,82.58
2024-04-18T08:23:21.535Z,78.42
2024-04-18T08:25:48.493Z,77.54
2024-04-18T08:28:16.293Z,76.81
2024-04-18T08:30:43.168Z,78.24
2024-04-18T08:33:10.125Z,74.91
2024-04-18T08:35:37.248Z,74.10
2024-04-18T08:38:04.173Z,75.03
2024-04-18T08:40:31.661Z,72.27
2024-04-18T08:42:58.553Z,71.88
2024-04-18T08:45:26.945Z,72.70
2024-04-18T08:47:55.617Z,72.06
2024-04-18T08:50:24.053Z,71.28
2024-04-18T08:52:53.145Z,68.80
2024-04-18T08:55:19.931Z,68.30
2024-04-18T08:57:53.523Z,64.17
2024-04-18T09:00:26.710Z,61.69
2024-04-18T09:02:54.339Z,61.45
2024-04-18T09:05:21.164Z,61.58
2024-04-18T09:07:48.062Z,60.45
2024-04-18T09:10:17.011Z,59.89
2024-04-18T09:12:43.863Z,62.26
2024-04-18T09:15:10.666Z,63.20
2024-04-18T09:17:37.594Z,62.80
2024-04-18T09:20:04.943Z,61.79
2024-04-18T09:22:31.803Z,62.66
2024-04-18T09:24:58.645Z,65.26
2024-04-18T09:27:25.522Z,64.59
2024-04-18T09:29:52.259Z,60.63
2024-04-18T09:32:19.338Z,62.85
2024-04-18T09:34:51.915Z,58.00
2024-04-18T09:37:22.406Z,54.66
2024-04-18T09:39:52.411Z,55.09
2024-04-18T09:42:50.855Z,57.53
2024-04-18T09:45:20.639Z,57.88
2024-04-18T09:47:48.942Z,58.02
2024-04-18T09:50:16.309Z,58.53
2024-04-18T09:52:46.391Z,59.17
2024-04-18T09:55:14.938Z,60.85
2024-04-18T09:57:45.125Z,60.21
2024-04-18T10:00:13.209Z,54.72
2024-04-18T10:02:41.742Z,55.56
2024-04-18T10:05:09.348Z,54.98
2024-04-18T10:07:37.418Z,54.94
2024-04-18T10:10:05.898Z,55.84
2024-04-18T10:12:33.921Z,57.29
2024-04-18T10:15:01.519Z,56.89
2024-04-18T10:17:32.759Z,56.38
2024-04-18T10:20:03.810Z,53.94
2024-04-18T10:22:45.161Z,55.84
2024-04-18T10:25:21.637Z,53.04
2024-04-18T10:27:48.578Z,48.23
2024-04-18T10:30:17.584Z,39.52
2024-04-18T10:32:46.339Z,40.73
2024-04-18T10:35:15.929Z,40.91
2024-04-18T10:37:52.494Z,43.12
2024-04-18T10:40:19.410Z,45.39
2024-04-18T10:42:46.284Z,47.49
2024-04-18T10:45:15.637Z,51.68
2024-04-18T10:47:44.201Z,50.56
2024-04-18T10:50:11.179Z,55.01
2024-04-18T10:52:37.944Z,54.37
2024-04-18T10:55:05.059Z,51.28
2024-04-18T10:57:32.758Z,49.51
2024-04-18T10:59:59.729Z,51.34
2024-04-18T11:02:27.705Z,50.25
2024-04-18T11:04:55.488Z,52.82
2024-04-18T11:07:22.353Z,52.65
2024-04-18T11:09:49.206Z,53.65
2024-04-18T11:12:16.510Z,55.48
2024-04-18T11:14:43.464Z,52.31
2024-04-18T11:17:10.245Z,52.41
2024-04-18T11:19:37.876Z,51.34
2024-04-18T11:22:04.985Z,50.75
2024-04-18T11:24:31.751Z,52.06
2024-04-18T11:26:58.642Z,51.71
2024-04-18T11:29:27.953Z,50.89
2024-04-18T11:32:03.388Z,52.63
2024-04-18T11:34:30.662Z,52.49
2024-04-18T11:36:58.308Z,53.07
2024-04-18T11:39:29.038Z,52.62
2024-04-18T11:41:55.870Z,51.56
2024-04-18T11:44:22.715Z,52.26
2024-04-18T11:46:51.749Z,53.17
2024-04-18T11:49:18.710Z,52.26
2024-04-18T11:51:45.517Z,51.31
2024-04-18T11:54:12.493Z,49.80
2024-04-18T11:56:39.466Z,47.48
2024-04-18T11:59:23.691Z,44.61
2024-04-18T12:01:51.489Z,42.35
2024-04-18T12:04:21.495Z,43.75
2024-04-18T12:06:48.459Z,46.08
2024-04-18T12:09:28.161Z,47.19
2024-04-18T12:11:59.789Z,47.98
2024-04-18T12:14:48.275Z,48.49
2024-04-18T12:17:29.433Z,48.44
2024-04-18T12:20:23.923Z,47.13
2024-04-18T12:22:50.797Z,44.24
2024-04-18T12:25:18.792Z,43.13
2024-04-18T12:27:46.724Z,44.61
2024-04-18T12:30:32.287Z,42.29
2024-04-18T12:33:18.050Z,42.17
2024-04-18T12:35:45.144Z,41.71
2024-04-18T12:38:12.002Z,35.29
2024-04-18T12:40:46.006Z,32.66
2024-04-18T12:43:13.684Z,36.66
2024-04-18T12:46:06.394Z,33.27
2024-04-18T12:48:50.943Z,34.65
2024-04-18T12:51:18.069Z,34.76
2024-04-18T12:53:44.972Z,37.34
2024-04-18T12:56:12.039Z,38.90
2024-04-18T12:58:42.347Z,40.41
2024-04-18T13:01:10.310Z,36.07
2024-04-18T13:03:41.439Z,35.68
2024-04-18T13:06:28.091Z,32.17
2024-04-18T13:08:56.661Z,33.78
2024-04-18T13:11:42.195Z,33.14
2024-04-18T13:14:09.399Z,36.60
2024-04-18T13:16:36.417Z,34.19
2024-04-18T13:19:12.431Z,36.70
2024-04-18T13:21:40.228Z,34.72
2024-04-18T13:24:12.269Z,34.71
2024-04-18T13:26:52.226Z,33.03
2024-04-18T13:29:20.002Z,30.55
2024-04-18T13:31:49.643Z,30.10
2024-04-18T13:34:22.707Z,27.67
2024-04-18T13:36:49.874Z,26.54
2024-04-18T13:39:17.035Z,28.96
2024-04-18T13:42:04.095Z,28.83
2024-04-18T13:44:51.492Z,26.88
2024-04-18T13:47:44.342Z,27.13
2024-04-18T13:50:11.335Z,28.56
2024-04-18T13:52:38.107Z,31.86
2024-04-18T13:55:05.724Z,32.91
2024-04-18T13:57:33.102Z,32.89
2024-04-18T14:00:19.458Z,32.32
2024-04-18T14:03:05.869Z,35.14
2024-04-18T14:05:33.340Z,35.72
2024-04-18T14:08:04.353Z,36.59
2024-04-18T14:10:32.460Z,39.96
2024-04-18T14:13:24.576Z,39.65
2024-04-18T14:16:13.822Z,40.94
2024-04-18T14:18:54.151Z,41.69
2024-04-18T14:21:34.519Z,42.16
2024-04-18T14:24:02.316Z,45.26
2024-04-18T14:26:29.883Z,42.71
2024-04-18T14:29:17.647Z,42.29
2024-04-18T14:32:03.111Z,41.94
2024-04-18T14:34:49.017Z,40.98
2024-04-18T14:37:19.123Z,40.14
2024-04-18T14:39:47.233Z,39.67
2024-04-18T14:42:14.733Z,39.41
2024-04-18T14:44:42.174Z,41.59
2024-04-18T14:47:17.016Z,40.81
2024-04-18T14:50:01.179Z,41.21
2024-04-18T14:52:34.567Z,42.47
2024-04-18T14:55:23.786Z,40.42
2024-04-18T14:57:51.329Z,42.77
2024-04-18T15:00:19.105Z,42.47
2024-04-18T15:02:47.082Z,41.89
2024-04-18T15:05:33.620Z,43.32
2024-04-18T15:08:01.109Z,43.00
2024-04-18T15:10:47.440Z,42.32
2024-04-18T15:13:15.251Z,40.25
2024-04-18T15:15:44.448Z,40.75
2024-04-18T15:18:14.471Z,38.78
2024-04-18T15:20:42.211Z,39.70
2024-04-18T15:23:11.293Z,40.10
2024-04-18T15:25:38.812Z,39.43
2024-04-18T15:28:06.847Z,39.49
2024-04-18T15:30:34.809Z,38.75
2024-04-18T15:33:21.320Z,39.50
2024-04-18T15:35:48.859Z,39.76
2024-04-18T15:38:16.248Z,41.13
2024-04-18T15:41:02.571Z,41.08
2024-04-18T15:43:35.360Z,40.09
2024-04-18T15:46:04.399Z,41.19
2024-04-18T15:48:31.505Z,39.29
2024-04-18T15:50:58.793Z,41.87
2024-04-18T15:53:29.726Z,40.42
2024-04-18T15:56:06.034Z,41.15
2024-04-18T15:58:52.769Z,39.99
2024-04-18T16:01:19.626Z,41.49
2024-04-18T16:04:06.853Z,41.46
2024-04-18T16:06:53.715Z,39.75
2024-04-18T16:09:40.662Z,42.43
2024-04-18T16:12:22.935Z,42.50
2024-04-18T16:15:06.168Z,43.63
2024-04-18T16:17:34.058Z,41.37
2024-04-18T16:20:10.532Z,42.51
2024-04-18T16:22:40.642Z,43.12
2024-04-18T16:25:26.946Z,43.42
2024-04-18T16:27:53.809Z,44.36
2024-04-18T16:30:21.146Z,44.69
2024-04-18T16:32:48.956Z,44.80
2024-04-18T16:35:16.431Z,46.90
2024-04-18T16:37:45.561Z,45.32
2024-04-18T16:40:17.180Z,46.93
2024-04-18T16:43:00.054Z,47.53
2024-04-18T16:45:48.143Z,48.18
2024-04-18T16:48:15.032Z,46.92
2024-04-18T16:50:41.845Z,46.27
2024-04-18T16:53:08.571Z,47.00
2024-04-18T16:55:44.565Z,47.48
2024-04-18T16:58:15.210Z,47.06
2024-04-18T17:01:00.072Z,46.60
2024-04-18T17:03:28.120Z,47.73
2024-04-18T17:06:05.960Z,46.88
2024-04-18T17:08:33.578Z,46.92
2024-04-18T17:11:00.413Z,47.89
2024-04-18T17:13:52.371Z,47.21
2024-04-18T17:16:20.202Z,47.86
2024-04-18T17:18:47.323Z,46.77
2024-04-18T17:21:14.390Z,47.21
2024-04-18T17:23:41.288Z,46.74
2024-04-18T17:26:08.151Z,47.66
2024-04-18T17:28:35.195Z,48.11
2024-04-18T17:31:02.171Z,49.63
2024-04-18T17:33:29.341Z,48.18
2024-04-18T17:36:00.108Z,48.49
2024-04-18T17:38:46.248Z,51.00
2024-04-18T17:41:29.505Z,49.38
2024-04-18T17:44:15.920Z,49.80
2024-04-18T17:46:59.573Z,52.54
2024-04-18T17:49:27.787Z,54.01
2024-04-18T17:51:55.232Z,57.18
2024-04-18T17:54:22.873Z,56.95
2024-04-18T17:56:50.088Z,57.86
2024-04-18T17:59:17.022Z,60.66
2024-04-18T18:01:44.655Z,58.48
2024-04-18T18:04:12.886Z,57.34
2024-04-18T18:06:40.218Z,56.46
2024-04-18T18:09:07.030Z,59.97
2024-04-18T18:11:34.074Z,60.80
2024-04-18T18:14:01.953Z,63.08
2024-04-18T18:16:48.696Z,63.50
2024-04-18T18:19:15.774Z,62.61
2024-04-18T18:21:56.058Z,62.68
2024-04-18T18:24:23.076Z,64.73
2024-04-18T18:26:49.889Z,64.60
2024-04-18T18:29:18.327Z,63.51
2024-04-18T18:32:03.721Z,65.52
2024-04-18T18:34:31.068Z,67.35
2024-04-18T18:36:57.837Z,67.08
2024-04-18T18:39:24.925Z,67.31
2024-04-18T18:41:51.803Z,67.22
2024-04-18T18:44:19.220Z,65.75
2024-04-18T18:46:46.052Z,66.22
2024-04-18T18:49:16.016Z,67.06
2024-04-18T18:51:44.809Z,66.65
2024-04-18T18:54:12.928Z,66.85
2024-04-18T18:56:41.153Z,67.57
2024-04-18T18:59:26.939Z,68.24
2024-04-18T19:01:53.760Z,68.40
2024-04-18T19:04:21.536Z,67.51
2024-04-18T19:06:48.467Z,68.70
2024-04-18T19:09:15.301Z,67.62
2024-04-18T19:11:42.274Z,67.49
2024-04-18T19:14:09.154Z,68.26
2024-04-18T19:16:56.005Z,70.01
2024-04-18T19:19:25.592Z,70.86
2024-04-18T19:21:52.936Z,70.63
2024-04-18T19:24:19.755Z,69.45
2024-04-18T19:27:02.142Z,70.13
2024-04-18T19:29:39.572Z,70.22
2024-04-18T19:32:13.315Z,71.41
2024-04-18T19:34:40.275Z,72.38
2024-04-18T19:37:07.141Z,72.15
2024-04-18T19:39:33.961Z,73.15
2024-04-18T19:42:01.136Z,72.90
2024-04-18T19:44:28.028Z,70.66
2024-04-18T19:46:54.871Z,69.84
2024-04-18T19:49:21.716Z,70.11
2024-04-18T19:51:56.526Z,73.03
2024-04-18T19:54:23.447Z,73.67
2024-04-18T19:56:50.292Z,72.24
2024-04-18T19:59:17.144Z,73.10
2024-04-18T20:01:44.051Z,74.60
2024-04-18T20:04:10.948Z,73.21
2024-04-18T20:06:39.504Z,74.49
2024-04-18T20:09:06.573Z,75.68
2024-04-18T20:11:33.460Z,75.18
2024-04-18T20:14:00.260Z,75.47
2024-04-18T20:16:27.046Z,75.13
2024-04-18T20:19:15.874Z,73.93
2024-04-18T20:21:44.343Z,75.04
2024-04-18T20:24:12.528Z,75.28
2024-04-18T20:26:58.344Z,75.62
2024-04-18T20:29:43.652Z,76.66
2024-04-18T20:32:26.968Z,76.31
2024-04-18T20:34:55.240Z,75.76
2024-04-18T20:37:23.423Z,76.11
2024-04-18T20:39:51.611Z,76.40
2024-04-18T20:42:19.867Z,77.11
2024-04-18T20:44:59.826Z,77.11
2024-04-18T20:47:27.121Z,76.46
2024-04-18T20:49:53.904Z,74.34
2024-04-18T20:52:20.843Z,73.12
2024-04-18T20:54:47.687Z,71.71
2024-04-18T20:57:14.557Z,70.74
2024-04-18T20:59:41.552Z,69.20
2024-04-18T21:02:08.747Z,69.07
2024-04-18T21:04:35.566Z,67.95
2024-04-18T21:07:02.396Z,67.98
2024-04-18T21:09:29.178Z,68.14
2024-04-18T21:11:56.063Z,67.95
2024-04-18T21:14:22.803Z,66.73
2024-04-18T21:16:49.619Z,66.74
2024-04-18T21:19:20.777Z,65.81
2024-04-18T21:21:48.575Z,65.54
2024-04-18T21:24:15.544Z,65.01
2024-04-18T21:26:49.940Z,64.70
2024-04-18T21:29:17.103Z,64.46
2024-04-18T21:31:44.133Z,64.54
2024-04-18T21:34:14.217Z,64.24
2024-04-18T21:36:41.255Z,64.23
2024-04-18T21:39:08.246Z,65.04
2024-04-18T21:41:39.371Z,64.01
2024-04-18T21:44:06.442Z,63.93
2024-04-18T21:46:33.445Z,65.09
2024-04-18T21:49:00.388Z,64.68
2024-04-18T21:51:27.414Z,63.95
2024-04-18T21:53:54.427Z,63.44
2024-04-18T21:56:21.166Z,62.91
2024-04-18T21:58:52.314Z,63.99
2024-04-18T22:01:37.914Z,63.61
2024-04-18T22:04:04.997Z,63.60
2024-04-18T22:06:32.120Z,64.51
2024-04-18T22:08:58.929Z,63.29
2024-04-18T22:11:26.158Z,62.78
2024-04-18T22:13:53.072Z,62.36
2024-04-18T22:16:19.842Z,61.67
2024-04-18T22:18:46.702Z,61.05
2024-04-18T22:21:13.533Z,60.83
2024-04-18T22:23:40.397Z,61.01
2024-04-18T22:26:07.201Z,61.27
2024-04-18T22:28:33.970Z,61.25
2024-04-18T22:31:01.618Z,61.65
2024-04-18T22:33:28.683Z,61.78
2024-04-18T22:35:55.910Z,62.21
2024-04-18T22:38:22.813Z,61.91
2024-04-18T22:40:49.888Z,62.35
2024-04-18T22:43:16.728Z,63.22
2024-04-18T22:45:43.752Z,62.84
2024-04-18T22:48:10.912Z,62.83
2024-04-18T22:50:37.938Z,63.60
2024-04-18T22:53:04.937Z,64.82
2024-04-18T22:55:31.689Z,65.14
2024-04-18T22:58:01.984Z,66.94
2024-04-18T23:00:30.564Z,66.00
2024-04-18T23:02:57.529Z,66.46
2024-04-18T23:05:36.842Z,66.89
2024-04-18T23:08:04.190Z,66.47
2024-04-18T23:10:33.141Z,67.14
2024-04-18T23:13:00.411Z,67.46
2024-04-18T23:15:45.615Z,68.71
2024-04-18T23:18:12.682Z,69.39
2024-04-18T23:20:39.821Z,69.54
2024-04-18T23:23:06.702Z,69.70
2024-04-18T23:25:33.546Z,69.76
2024-04-18T23:28:00.296Z,69.91
2024-04-18T23:30:27.158Z,69.77
2024-04-18T23:32:54.027Z,70.11
2024-04-18T23:35:20.934Z,70.61
2024-04-18T23:37:47.752Z,71.80
2024-04-18T23:40:14.552Z,73.79
2024-04-18T23:42:41.550Z,74.92
2024-04-18T23:45:08.994Z,75.79
2024-04-18T23:47:35.970Z,76.61
2024-04-18T23:50:03.364Z,76.30
2024-04-18T23:52:30.186Z,76.80
2024-04-18T23:54:57.211Z,77.07
2024-04-18T23:57:25.733Z,77.88
2024-04-18T23:59:52.610Z,77.84
